createdAt,value
2023-03-11T00:00:34.384Z,5.25
2023-03-11T00:03:02.823Z,8.02
2023-03-11T00:05:32.324Z,6.03
2023-03-11T00:07:59.889Z,4.88
2023-03-11T00:10:30.452Z,9.60
2023-03-11T00:12:58.243Z,4.57
2023-03-11T00:15:26.118Z,8.65
2023-03-11T00:17:53.130Z,3.53
2023-03-11T00:20:23.415Z,4.68
2023-03-11T00:22:53.939Z,3.95
2023-03-11T00:25:22.644Z,3.80
2023-03-11T00:27:49.723Z,3.38
2023-03-11T00:30:22.128Z,2.33
2023-03-11T00:32:50.772Z,4.25
2023-03-11T00:35:21.200Z,6.38
2023-03-11T00:37:49.091Z,5.13
2023-03-11T00:40:19.414Z,5.50
2023-03-11T00:42:46.756Z,7.63
2023-03-11T00:45:14.831Z,4.53
2023-03-11T00:47:41.897Z,5.00
2023-03-11T00:50:12.199Z,4.00
2023-03-11T00:52:39.243Z,6.57
2023-03-11T00:55:07.656Z,5.57
2023-03-11T00:57:35.672Z,2.83
2023-03-11T01:00:04.103Z,7.68
2023-03-11T01:02:30.916Z,4.63
2023-03-11T01:04:57.694Z,4.65
2023-03-11T01:07:24.500Z,6.93
2023-03-11T01:09:51.427Z,4.38
2023-03-11T01:12:18.221Z,8.23
2023-03-11T01:14:45.086Z,5.97
2023-03-11T01:17:11.934Z,4.18
2023-03-11T01:19:38.705Z,9.27
2023-03-11T01:22:05.658Z,3.90
2023-03-11T01:24:34.473Z,3.78
2023-03-11T01:27:01.316Z,6.20
2023-03-11T01:29:28.107Z,4.80
2023-03-11T01:31:56.387Z,5.40
2023-03-11T01:34:27.353Z,3.85
2023-03-11T01:36:54.141Z,5.55
2023-03-11T01:39:20.959Z,3.92
2023-03-11T01:41:48.305Z,6.30
2023-03-11T01:44:15.135Z,4.00
2023-03-11T01:46:52.184Z,5.70
2023-03-11T01:49:22.856Z,6.18
2023-03-11T01:51:53.327Z,9.05
2023-03-11T01:54:24.092Z,7.72
2023-03-11T01:56:51.816Z,6.07
2023-03-11T01:59:31.855Z,3.70
2023-03-11T02:02:14.831Z,7.20
2023-03-11T02:05:09.550Z,4.50
2023-03-11T02:07:41.070Z,6.32
2023-03-11T02:10:13.499Z,4.33
2023-03-11T02:12:41.246Z,2.83
2023-03-11T02:15:09.819Z,4.60
2023-03-11T02:17:37.867Z,2.63
2023-03-11T02:20:21.872Z,3.08
2023-03-11T02:22:49.779Z,6.87
2023-03-11T02:25:35.817Z,4.55
2023-03-11T02:28:07.605Z,7.03
2023-03-11T02:30:35.834Z,7.35
2023-03-11T02:33:03.587Z,4.40
2023-03-11T02:35:31.530Z,8.83
2023-03-11T02:37:59.869Z,5.60
2023-03-11T02:40:39.268Z,4.55
2023-03-11T02:43:10.608Z,6.78
2023-03-11T02:45:41.504Z,4.80
2023-03-11T02:48:11.787Z,4.63
2023-03-11T02:50:40.318Z,5.22
2023-03-11T02:53:07.955Z,7.25
2023-03-11T02:55:34.831Z,5.32
2023-03-11T02:58:01.668Z,5.18
2023-03-11T03:00:28.945Z,7.73
2023-03-11T03:03:01.508Z,5.70
2023-03-11T03:05:29.242Z,6.18
2023-03-11T03:07:58.028Z,5.78
2023-03-11T03:10:24.997Z,5.40
2023-03-11T03:12:51.827Z,7.27
2023-03-11T03:15:18.980Z,7.70
2023-03-11T03:17:46.545Z,3.33
2023-03-11T03:20:14.543Z,3.55
2023-03-11T03:22:46.948Z,4.78
2023-03-11T03:25:17.006Z,4.40
2023-03-11T03:27:44.037Z,3.28
2023-03-11T03:30:11.719Z,3.78
2023-03-11T03:32:39.600Z,8.70
2023-03-11T03:35:10.668Z,7.28
2023-03-11T03:37:56.475Z,5.57
2023-03-11T03:40:23.823Z,5.53
2023-03-11T03:42:52.378Z,10.18
2023-03-11T03:45:20.060Z,4.55
2023-03-11T03:47:48.535Z,6.35
2023-03-11T03:50:15.396Z,8.37
2023-03-11T03:52:46.334Z,5.72
2023-03-11T03:55:13.317Z,7.20
2023-03-11T03:57:40.740Z,4.70
2023-03-11T04:00:11.110Z,8.10
2023-03-11T04:02:40.615Z,8.00
2023-03-11T04:05:13.047Z,3.00
2023-03-11T04:07:41.450Z,4.28
2023-03-11T04:10:09.160Z,3.08
2023-03-11T04:12:36.054Z,5.78
2023-03-11T04:15:03.202Z,3.53
2023-03-11T04:17:30.032Z,5.10
2023-03-11T04:19:57.054Z,5.80
2023-03-11T04:22:23.997Z,2.80
2023-03-11T04:24:50.974Z,4.85
2023-03-11T04:27:19.219Z,4.13
2023-03-11T04:29:46.239Z,9.02
2023-03-11T04:32:13.145Z,5.43
2023-03-11T04:34:41.998Z,4.10
2023-03-11T04:37:09.361Z,7.47
2023-03-11T04:39:37.027Z,7.10
2023-03-11T04:42:04.237Z,6.65
2023-03-11T04:44:35.787Z,5.05
2023-03-11T04:47:03.777Z,3.80
2023-03-11T04:49:30.980Z,7.15
2023-03-11T04:51:57.940Z,3.77
2023-03-11T04:54:25.899Z,4.20
2023-03-11T04:56:53.357Z,6.07
2023-03-11T04:59:20.644Z,5.40
2023-03-11T05:01:48.976Z,7.13
2023-03-11T05:04:17.008Z,6.70
2023-03-11T05:06:43.861Z,4.28
2023-03-11T05:09:12.803Z,3.13
2023-03-11T05:11:40.693Z,6.50
2023-03-11T05:14:07.953Z,4.60
2023-03-11T05:16:35.737Z,6.10
2023-03-11T05:19:24.331Z,8.40
2023-03-11T05:21:51.578Z,6.47
2023-03-11T05:24:19.018Z,5.10
2023-03-11T05:26:48.482Z,7.70
2023-03-11T05:29:16.282Z,5.50
2023-03-11T05:31:43.491Z,6.10
2023-03-11T05:34:10.686Z,5.43
2023-03-11T05:36:37.776Z,4.85
2023-03-11T05:39:04.879Z,7.68
2023-03-11T05:41:33.985Z,7.20
2023-03-11T05:44:01.418Z,4.22
2023-03-11T05:46:28.445Z,3.47
2023-03-11T05:48:56.078Z,4.60
2023-03-11T05:51:23.303Z,5.65
2023-03-11T05:53:50.256Z,5.30
2023-03-11T05:56:25.102Z,4.97
2023-03-11T05:58:53.847Z,4.65
2023-03-11T06:01:20.873Z,4.82
2023-03-11T06:03:48.153Z,3.90
2023-03-11T06:06:15.172Z,5.27
2023-03-11T06:08:46.174Z,7.15
2023-03-11T06:11:13.118Z,6.72
2023-03-11T06:13:40.414Z,7.78
2023-03-11T06:16:09.826Z,4.72
2023-03-11T06:18:36.949Z,4.77
2023-03-11T06:21:04.961Z,6.75
2023-03-11T06:23:33.034Z,4.63
2023-03-11T06:26:04.218Z,3.17
2023-03-11T06:28:36.250Z,3.55
2023-03-11T06:31:21.982Z,6.90
2023-03-11T06:33:49.026Z,3.55
2023-03-11T06:36:18.136Z,7.15
2023-03-11T06:38:46.727Z,7.53
2023-03-11T06:41:14.855Z,6.18
2023-03-11T06:43:42.158Z,4.93
2023-03-11T06:46:10.968Z,4.53
2023-03-11T06:48:39.467Z,6.25
2023-03-11T06:51:06.449Z,4.80
2023-03-11T06:53:34.342Z,4.50
2023-03-11T06:56:08.130Z,6.07
2023-03-11T06:58:42.823Z,5.40
2023-03-11T07:01:24.348Z,6.00
2023-03-11T07:03:52.860Z,5.38
2023-03-11T07:06:24.733Z,4.93
2023-03-11T07:08:54.229Z,4.50
2023-03-11T07:11:23.613Z,5.47
2023-03-11T07:13:54.452Z,5.70
2023-03-11T07:16:27.017Z,6.70
2023-03-11T07:19:02.861Z,6.95
2023-03-11T07:21:31.873Z,6.43
2023-03-11T07:24:00.978Z,4.88
2023-03-11T07:26:29.377Z,5.97
2023-03-11T07:28:57.548Z,4.53
2023-03-11T07:31:31.717Z,5.65
2023-03-11T07:34:01.064Z,8.20
2023-03-11T07:36:29.231Z,5.40
2023-03-11T07:39:04.246Z,7.28
2023-03-11T07:41:34.246Z,7.00
2023-03-11T07:44:02.958Z,6.68
2023-03-11T07:46:31.351Z,4.67
2023-03-11T07:48:58.796Z,7.25
2023-03-11T07:51:28.404Z,5.40
2023-03-11T07:53:56.994Z,8.52
2023-03-11T07:56:25.836Z,5.35
2023-03-11T07:58:53.201Z,7.40
2023-03-11T08:01:22.878Z,7.28
2023-03-11T08:03:51.862Z,7.43
2023-03-11T08:06:24.625Z,7.13
2023-03-11T08:08:51.774Z,4.68
2023-03-11T08:11:20.670Z,5.53
2023-03-11T08:13:48.244Z,6.30
2023-03-11T08:16:18.260Z,6.60
2023-03-11T08:18:47.342Z,5.20
2023-03-11T08:21:16.636Z,5.60
2023-03-11T08:23:44.114Z,6.43
2023-03-11T08:26:14.004Z,6.70
2023-03-11T08:28:41.112Z,4.22
2023-03-11T08:31:24.157Z,3.65
2023-03-11T08:33:53.287Z,5.18
2023-03-11T08:36:20.929Z,5.43
2023-03-11T08:38:48.075Z,5.22
2023-03-11T08:41:15.803Z,5.32
2023-03-11T08:43:43.061Z,5.03
2023-03-11T08:46:25.070Z,5.63
2023-03-11T08:48:52.522Z,4.00
2023-03-11T08:51:20.128Z,3.90
2023-03-11T08:53:47.960Z,4.60
2023-03-11T08:56:14.807Z,5.43
2023-03-11T08:58:41.578Z,3.85
2023-03-11T09:01:11.452Z,3.93
2023-03-11T09:03:38.971Z,3.42
2023-03-11T09:06:09.437Z,4.80
2023-03-11T09:08:36.658Z,4.85
2023-03-11T09:11:03.671Z,4.22
2023-03-11T09:13:30.564Z,4.37
2023-03-11T09:15:57.585Z,5.80
2023-03-11T09:18:24.509Z,6.18
2023-03-11T09:20:51.585Z,5.95
2023-03-11T09:23:18.718Z,5.75
2023-03-11T09:25:45.546Z,5.40
2023-03-11T09:28:12.356Z,4.90
2023-03-11T09:30:39.299Z,6.22
2023-03-11T09:33:06.421Z,5.70
2023-03-11T09:35:33.535Z,7.45
2023-03-11T09:38:00.686Z,4.97
2023-03-11T09:40:32.847Z,6.57
2023-03-11T09:42:59.562Z,8.20
2023-03-11T09:45:32.284Z,5.55
2023-03-11T09:48:37.129Z,3.97
2023-03-11T09:51:15.631Z,6.37
2023-03-11T09:53:44.823Z,4.15
2023-03-11T09:56:22.405Z,4.47
2023-03-11T09:59:15.594Z,6.50
2023-03-11T10:01:50.061Z,5.47
2023-03-11T10:04:20.299Z,5.67
2023-03-11T10:06:47.997Z,5.95
2023-03-11T10:09:52.622Z,6.32
2023-03-11T10:12:32.034Z,7.05
2023-03-11T10:15:06.229Z,5.28
2023-03-11T10:17:44.946Z,5.40
2023-03-11T10:20:22.650Z,6.88
2023-03-11T10:23:26.067Z,5.80
2023-03-11T10:26:20.459Z,6.53
2023-03-11T10:29:00.053Z,5.22
2023-03-11T10:31:33.364Z,6.27
2023-03-11T10:34:15.517Z,6.22
2023-03-11T10:37:01.889Z,6.22
2023-03-11T10:39:29.439Z,4.40
2023-03-11T10:42:01.923Z,5.75
2023-03-11T10:44:34.307Z,3.47
2023-03-11T10:47:02.200Z,4.38
2023-03-11T10:49:29.757Z,6.00
2023-03-11T10:51:57.261Z,5.32
2023-03-11T10:54:39.625Z,8.07
2023-03-11T10:57:22.531Z,4.77
2023-03-11T11:00:01.018Z,6.20
2023-03-11T11:02:32.497Z,5.28
2023-03-11T11:05:17.889Z,3.17
2023-03-11T11:07:47.633Z,6.53
2023-03-11T11:10:21.932Z,6.83
2023-03-11T11:13:15.274Z,4.00
2023-03-11T11:16:06.283Z,5.97
2023-03-11T11:18:55.779Z,5.22
2023-03-11T11:21:33.542Z,4.00
2023-03-11T11:24:15.646Z,5.23
2023-03-11T11:26:42.752Z,5.30
2023-03-11T11:29:15.054Z,7.15
2023-03-11T11:31:44.769Z,4.85
2023-03-11T11:34:31.520Z,7.13
2023-03-11T11:37:05.350Z,6.63
2023-03-11T11:39:58.259Z,7.28
2023-03-11T11:42:28.320Z,4.45
2023-03-11T11:45:04.470Z,3.50
2023-03-11T11:47:36.074Z,5.85
2023-03-11T11:50:07.218Z,4.70
2023-03-11T11:53:01.752Z,5.47
2023-03-11T11:55:30.742Z,5.32
2023-03-11T11:57:57.866Z,7.80
2023-03-11T12:00:37.901Z,2.78
2023-03-11T12:03:16.479Z,4.73
2023-03-11T12:06:03.096Z,7.20
2023-03-11T12:09:00.577Z,3.45
2023-03-11T12:11:37.162Z,4.07
2023-03-11T12:14:49.226Z,4.40
2023-03-11T12:17:23.631Z,5.03
2023-03-11T12:20:03.629Z,4.82
2023-03-11T12:22:57.791Z,5.03
2023-03-11T12:25:24.905Z,4.28
2023-03-11T12:28:18.933Z,5.45
2023-03-11T12:30:53.311Z,3.50
2023-03-11T12:33:27.892Z,3.72
2023-03-11T12:35:58.058Z,5.15
2023-03-11T12:38:38.727Z,3.78
2023-03-11T12:41:14.925Z,3.58
2023-03-11T12:43:41.654Z,4.93
2023-03-11T12:46:14.382Z,5.80
2023-03-11T12:48:46.542Z,5.93
2023-03-11T12:51:37.412Z,4.30
2023-03-11T12:54:34.398Z,5.45
2023-03-11T12:57:16.830Z,3.37
2023-03-11T13:00:07.047Z,5.35
2023-03-11T13:02:53.175Z,4.50
2023-03-11T13:05:29.605Z,3.58
2023-03-11T13:08:21.501Z,3.45
2023-03-11T13:10:56.348Z,2.30
2023-03-11T13:13:33.757Z,5.07
2023-03-11T13:16:12.937Z,4.65
2023-03-11T13:18:41.985Z,3.90
2023-03-11T13:21:38.184Z,4.43
2023-03-11T13:24:22.683Z,3.87
2023-03-11T13:27:09.917Z,3.83
2023-03-11T13:29:52.279Z,5.25
2023-03-11T13:32:34.089Z,4.28
2023-03-11T13:35:32.725Z,5.43
2023-03-11T13:38:30.138Z,4.60
2023-03-11T13:40:57.194Z,4.22
2023-03-11T13:43:26.330Z,8.10
2023-03-11T13:46:08.278Z,4.07
2023-03-11T13:48:45.352Z,4.13
2023-03-11T13:51:22.112Z,5.30
2023-03-11T13:53:56.280Z,5.35
2023-03-11T13:56:38.385Z,4.35
2023-03-11T13:59:27.755Z,3.08
2023-03-11T14:02:01.593Z,3.42
2023-03-11T14:04:37.576Z,4.97
2023-03-11T14:07:35.448Z,3.42
2023-03-11T14:10:17.420Z,5.40
2023-03-11T14:12:44.924Z,4.80
2023-03-11T14:15:24.133Z,4.38
2023-03-11T14:17:52.648Z,6.57
2023-03-11T14:20:22.477Z,3.65
2023-03-11T14:22:55.157Z,3.90
2023-03-11T14:25:28.169Z,3.83
2023-03-11T14:28:01.096Z,3.35
2023-03-11T14:30:30.395Z,3.23
2023-03-11T14:33:06.529Z,5.10
2023-03-11T14:35:34.634Z,3.83
2023-03-11T14:38:01.682Z,3.83
2023-03-11T14:40:34.160Z,3.15
2023-03-11T14:43:07.878Z,4.43
2023-03-11T14:45:40.418Z,4.45
2023-03-11T14:48:41.755Z,5.03
2023-03-11T14:51:15.631Z,4.93
2023-03-11T14:54:15.538Z,4.97
2023-03-11T14:56:47.920Z,4.00
2023-03-11T14:59:26.983Z,5.88
2023-03-11T15:01:57.971Z,4.78
2023-03-11T15:04:33.287Z,4.07
2023-03-11T15:07:01.770Z,4.43
2023-03-11T15:09:29.582Z,5.17
2023-03-11T15:11:59.243Z,3.58
2023-03-11T15:14:28.745Z,5.30
2023-03-11T15:17:08.432Z,4.97
2023-03-11T15:19:35.264Z,4.05
2023-03-11T15:22:27.368Z,5.30
2023-03-11T15:24:59.841Z,4.95
2023-03-11T15:27:37.202Z,6.05
2023-03-11T15:30:19.130Z,4.68
2023-03-11T15:32:46.867Z,4.30
2023-03-11T15:35:18.994Z,4.03
2023-03-11T15:37:47.705Z,3.78
2023-03-11T15:40:42.368Z,1.92
2023-03-11T15:43:23.930Z,2.38
2023-03-11T15:45:55.683Z,3.97
2023-03-11T15:48:23.564Z,2.37
2023-03-11T15:50:56.349Z,4.78
2023-03-11T15:53:25.575Z,2.95
2023-03-11T15:55:54.440Z,4.57
2023-03-11T15:58:22.084Z,2.00
2023-03-11T16:00:56.192Z,2.00
2023-03-11T16:03:23.952Z,3.45
2023-03-11T16:05:51.276Z,5.20
2023-03-11T16:08:18.254Z,2.55
2023-03-11T16:10:45.263Z,2.45
2023-03-11T16:13:16.026Z,5.27
2023-03-11T16:15:43.487Z,3.85
2023-03-11T16:18:10.979Z,2.63
2023-03-11T16:20:47.474Z,3.35
2023-03-11T16:23:26.324Z,5.50
2023-03-11T16:26:04.823Z,4.27
2023-03-11T16:28:31.724Z,3.65
2023-03-11T16:30:58.722Z,6.57
2023-03-11T16:33:26.037Z,4.25
2023-03-11T16:35:52.885Z,3.17
2023-03-11T16:38:23.013Z,4.37
2023-03-11T16:41:08.140Z,6.18
2023-03-11T16:43:35.128Z,4.55
2023-03-11T16:46:02.268Z,3.53
2023-03-11T16:48:29.216Z,2.80
2023-03-11T16:50:56.058Z,6.60
2023-03-11T16:53:25.103Z,4.93
2023-03-11T16:55:52.878Z,3.00
2023-03-11T16:58:19.807Z,5.20
2023-03-11T17:00:47.120Z,2.10
2023-03-11T17:03:17.173Z,2.60
2023-03-11T17:05:44.360Z,5.88
2023-03-11T17:08:12.011Z,3.00
2023-03-11T17:10:43.414Z,2.30
2023-03-11T17:13:12.698Z,3.60
2023-03-11T17:15:42.217Z,4.27
2023-03-11T17:18:09.090Z,5.68
2023-03-11T17:20:38.061Z,4.97
2023-03-11T17:23:04.932Z,4.20
2023-03-11T17:25:31.779Z,4.88
2023-03-11T17:27:58.840Z,6.50
2023-03-11T17:30:36.427Z,3.28
2023-03-11T17:33:03.902Z,4.40
2023-03-11T17:35:30.718Z,4.72
2023-03-11T17:37:57.593Z,5.28
2023-03-11T17:40:26.906Z,5.00
2023-03-11T17:42:53.898Z,3.85
2023-03-11T17:45:20.784Z,4.07
2023-03-11T17:47:47.549Z,3.53
2023-03-11T17:50:14.490Z,5.38
2023-03-11T17:52:41.341Z,6.13
2023-03-11T17:55:08.713Z,4.43
2023-03-11T17:57:44.768Z,6.10
2023-03-11T18:00:14.643Z,6.53
2023-03-11T18:02:41.764Z,3.45
2023-03-11T18:05:09.398Z,4.97
2023-03-11T18:07:39.080Z,6.22
2023-03-11T18:10:09.399Z,5.10
2023-03-11T18:12:36.630Z,5.22
2023-03-11T18:15:07.184Z,4.25
2023-03-11T18:17:37.315Z,7.80
2023-03-11T18:20:05.068Z,9.73
2023-03-11T18:22:34.864Z,7.10
2023-03-11T18:25:02.097Z,10.93
2023-03-11T18:27:28.924Z,10.13
2023-03-11T18:29:55.769Z,8.13
2023-03-11T18:32:24.639Z,8.15
2023-03-11T18:34:51.497Z,7.60
2023-03-11T18:37:18.411Z,8.18
2023-03-11T18:39:45.234Z,8.75
2023-03-11T18:42:14.162Z,8.73
2023-03-11T18:44:41.787Z,9.57
2023-03-11T18:47:08.594Z,9.70
2023-03-11T18:49:35.456Z,10.57
2023-03-11T18:52:02.310Z,9.13
2023-03-11T18:54:29.151Z,10.77
2023-03-11T18:56:55.905Z,9.25
2023-03-11T18:59:22.745Z,10.50
2023-03-11T19:01:50.892Z,13.40
2023-03-11T19:04:17.856Z,13.98
2023-03-11T19:06:44.681Z,10.67
2023-03-11T19:09:12.115Z,11.77
2023-03-11T19:11:38.997Z,12.93
2023-03-11T19:14:05.795Z,13.73
2023-03-11T19:16:32.633Z,15.05
2023-03-11T19:19:00.365Z,15.40
2023-03-11T19:21:27.664Z,15.52
2023-03-11T19:23:56.498Z,14.98
2023-03-11T19:26:41.543Z,14.13
2023-03-11T19:29:10.515Z,14.48
2023-03-11T19:31:37.433Z,16.90
2023-03-11T19:34:04.547Z,17.52
2023-03-11T19:36:31.512Z,17.27
2023-03-11T19:38:58.286Z,18.75
2023-03-11T19:41:25.202Z,22.67
2023-03-11T19:43:52.327Z,25.07
2023-03-11T19:46:21.214Z,25.48
2023-03-11T19:48:48.162Z,24.80
2023-03-11T19:51:17.142Z,30.17
2023-03-11T19:53:44.087Z,26.35
2023-03-11T19:56:10.842Z,27.47
2023-03-11T19:58:38.040Z,25.98
2023-03-11T20:01:05.097Z,26.25
2023-03-11T20:03:32.033Z,23.45
2023-03-11T20:06:05.350Z,25.33
2023-03-11T20:08:36.719Z,23.57
2023-03-11T20:11:05.669Z,21.50
2023-03-11T20:13:34.527Z,19.73
2023-03-11T20:16:10.362Z,18.92
2023-03-11T20:18:37.432Z,18.50
2023-03-11T20:21:08.873Z,15.40
2023-03-11T20:23:36.616Z,15.77
2023-03-11T20:26:08.609Z,15.05
2023-03-11T20:28:35.696Z,16.75
2023-03-11T20:31:17.149Z,18.85
2023-03-11T20:33:44.239Z,15.00
2023-03-11T20:36:15.092Z,17.65
2023-03-11T20:38:42.287Z,15.57
2023-03-11T20:41:10.424Z,14.40
2023-03-11T20:43:38.406Z,15.32
2023-03-11T20:46:06.675Z,13.80
2023-03-11T20:48:34.222Z,16.40
2023-03-11T20:51:03.447Z,17.33
2023-03-11T20:53:31.135Z,16.00
2023-03-11T20:55:59.263Z,18.55
2023-03-11T20:58:26.587Z,15.10
2023-03-11T21:00:53.491Z,17.58
2023-03-11T21:03:20.573Z,17.10
2023-03-11T21:05:47.623Z,20.27
2023-03-11T21:08:14.571Z,17.63
2023-03-11T21:10:41.556Z,19.40
2023-03-11T21:13:08.610Z,20.38
2023-03-11T21:15:38.266Z,17.25
2023-03-11T21:18:06.982Z,16.17
2023-03-11T21:20:33.950Z,15.63
2023-03-11T21:23:00.747Z,18.17
2023-03-11T21:25:28.491Z,18.60
2023-03-11T21:27:55.247Z,17.95
2023-03-11T21:30:22.173Z,16.90
2023-03-11T21:32:49.268Z,17.10
2023-03-11T21:35:16.345Z,17.57
2023-03-11T21:37:43.237Z,15.80
2023-03-11T21:40:11.041Z,14.73
2023-03-11T21:42:37.975Z,14.68
2023-03-11T21:45:05.364Z,15.38
2023-03-11T21:47:32.313Z,18.00
2023-03-11T21:49:59.532Z,14.63
2023-03-11T21:52:26.724Z,13.55
2023-03-11T21:54:53.533Z,14.38
2023-03-11T21:57:20.304Z,14.98
2023-03-11T21:59:47.240Z,13.23
2023-03-11T22:02:16.058Z,12.73
2023-03-11T22:04:43.630Z,13.20
2023-03-11T22:07:10.562Z,12.32
2023-03-11T22:09:37.560Z,11.55
2023-03-11T22:12:04.766Z,10.83
2023-03-11T22:14:31.653Z,9.45
2023-03-11T22:16:58.399Z,13.40
2023-03-11T22:19:25.334Z,13.48
2023-03-11T22:21:52.407Z,9.60
2023-03-11T22:24:19.304Z,10.20
2023-03-11T22:26:46.162Z,11.65
2023-03-11T22:29:13.760Z,11.73
2023-03-11T22:31:40.896Z,10.63
2023-03-11T22:34:07.878Z,10.70
2023-03-11T22:36:34.711Z,11.37
2023-03-11T22:39:04.199Z,11.93
2023-03-11T22:41:31.812Z,10.05
2023-03-11T22:43:58.737Z,11.43
2023-03-11T22:46:26.269Z,13.13
2023-03-11T22:48:53.007Z,12.50
2023-03-11T22:51:19.739Z,12.07
2023-03-11T22:53:47.176Z,11.75
2023-03-11T22:56:15.844Z,13.02
2023-03-11T22:58:43.225Z,12.63
2023-03-11T23:01:10.872Z,11.07
2023-03-11T23:03:38.925Z,15.10
2023-03-11T23:06:08.740Z,11.52
2023-03-11T23:08:36.255Z,11.85
2023-03-11T23:11:09.281Z,11.40
2023-03-11T23:13:36.516Z,12.67
2023-03-11T23:16:15.357Z,14.45
2023-03-11T23:18:43.691Z,15.90
2023-03-11T23:21:18.877Z,13.88
2023-03-11T23:23:46.347Z,15.75
2023-03-11T23:26:14.097Z,15.23
2023-03-11T23:28:42.006Z,17.67
2023-03-11T23:31:10.678Z,16.23
2023-03-11T23:33:38.730Z,16.98
2023-03-11T23:36:09.006Z,18.05
2023-03-11T23:38:36.734Z,15.03
2023-03-11T23:41:12.293Z,14.18
2023-03-11T23:43:40.055Z,16.33
2023-03-11T23:46:07.961Z,17.75
2023-03-11T23:48:35.188Z,15.43
2023-03-11T23:51:02.484Z,15.67
2023-03-11T23:53:31.573Z,16.42
2023-03-11T23:55:58.670Z,12.70
2023-03-11T23:58:25.896Z,14.32
